Westmont, Illinois
Current Conditions -  °F | °C
As of 1:53 AM on Saturday 01 Nov 2014 (Local Time) from KMDW Reporting Station
Light Snow Light Snow  
Wind Chill: 30°   Ceiling: 3900
Heat Index: 38°   Visibility: 10mi
Dew Point: 25°   Wind: 12mph
Humidity: 60%   Direction: 340°NNW
Pressure: 30.34"   Gusts: NA
Location:  41.8°N, 87.98°W
Report Text: KMDW 010653Z 34010KT 10SM -SN BKN039 OVC043 03/M04 A3034 RMK AO2 SLP280 P0000 T00331039
Loading
Personal Weather Stations






























Interactive Weather Map
Tropical Storm Tracking
New forecast layout! Learn more

10-Day Weather Forecast

Advertisements
Track Severe Weather on mobile